Terminal Aerodrome Forecast
Issued by NWS Missoula, MT

Home | Current Version | Previous Version | Text Only | Print | Product List | Glossary On
Versions: 1 2 3 4 5 6 7 8 9 10 11 12 13
000
FTUS45 KMSO 181700
TAFBTM
TAF
KBTM 181720Z 1818/1918 26015G25KT P6SM VCSH SCT035 BKN060
     FM182000 28018G30KT P6SM SCT070
     FM190300 28008KT P6SM SKC
     FM190400 VRB04KT P6SM SKC=

USA.gov is the U.S. government's official web portal to all federal, state and local government web resources and services.